Keefeton, Oklahoma
Current Conditions -  °F | °C
As of 9:53 AM on Tuesday 21 Oct 2014 (Local Time) from KMKO Reporting Station
Broken Clouds Broken Clouds  
Wind Chill: 62°   Ceiling: 4300
Heat Index: 62°   Visibility: 7mi
Dew Point: 60°   Wind: 6mph
Humidity: 93%   Direction: 140°SE
Pressure: 30.14"   Gusts: NA
Location:  35.6818°N, 95.3578°W
Report Text: KMKO 211453Z AUTO 14005KT 7SM BKN043 BKN055 17/16 A3014 RMK AO2 SLP203 T01670156 53015
Loading
Personal Weather Stations






























Interactive Weather Map
Tropical Storm Tracking
New forecast layout! Learn more

10-Day Weather Forecast

Advertisements
Track Severe Weather on mobile